createdAt,value
2022-08-22T00:01:20.363Z,101277.56
2022-08-22T00:02:53.439Z,101220.34
2022-08-22T00:02:59.905Z,101214.66
2022-08-22T00:04:02.779Z,101277.94
2022-08-22T00:06:49.280Z,101278.31
2022-08-22T00:09:25.014Z,101275.06
2022-08-22T00:12:00.941Z,101288.94
2022-08-22T00:14:37.399Z,101274.78
2022-08-22T00:17:19.810Z,101287.94
2022-08-22T00:19:57.922Z,101279.25
2022-08-22T00:22:34.955Z,101276.91
2022-08-22T00:25:25.615Z,101279.16
2022-08-22T00:27:56.820Z,101277.63
2022-08-22T00:30:24.748Z,101276.09
2022-08-22T00:32:56.869Z,101276.47
2022-08-22T00:35:32.311Z,101273.22
2022-08-22T00:38:05.936Z,101278.22
2022-08-22T00:40:52.832Z,101283.16
2022-08-22T00:43:56.782Z,101282.47
2022-08-22T00:46:41.376Z,101285.41
2022-08-22T00:49:18.864Z,101283.88
2022-08-22T00:52:27.356Z,101285.78
2022-08-22T00:55:28.007Z,101281.50
2022-08-22T00:58:29.160Z,101277.28
2022-08-22T01:01:03.093Z,101278.66
2022-08-22T01:04:20.670Z,101281.72
2022-08-22T01:06:58.762Z,101284.66
2022-08-22T01:09:39.707Z,101276.63
2022-08-22T01:12:29.103Z,101281.41
2022-08-22T01:15:00.118Z,101288.09
2022-08-22T01:17:54.027Z,101292.03
2022-08-22T01:20:58.997Z,101294.09
2022-08-22T01:23:58.119Z,101295.63
2022-08-22T01:27:10.637Z,101302.50
2022-08-22T01:30:11.986Z,101304.72
2022-08-22T01:33:16.316Z,101304.22
2022-08-22T01:36:10.594Z,101305.44
2022-08-22T01:38:59.642Z,101307.31
2022-08-22T01:42:05.269Z,101307.50
2022-08-22T01:44:58.701Z,101307.00
2022-08-22T01:47:29.778Z,101313.63
2022-08-22T01:50:17.046Z,101307.69
2022-08-22T01:52:49.139Z,101311.28
2022-08-22T01:55:25.200Z,101305.16
2022-08-22T01:57:54.431Z,101302.59
2022-08-22T02:00:35.312Z,101305.47
2022-08-22T02:03:22.018Z,101308.22
2022-08-22T02:05:53.082Z,101311.31
2022-08-22T02:08:30.321Z,101312.31
2022-08-22T02:11:02.791Z,101308.94
2022-08-22T02:13:46.662Z,101308.06
2022-08-22T02:16:20.105Z,101313.88
2022-08-22T02:18:59.729Z,101306.88
2022-08-22T02:21:32.401Z,101307.25
2022-08-22T02:24:04.801Z,101309.47
2022-08-22T02:26:43.881Z,101307.94
2022-08-22T02:29:14.286Z,101310.81
2022-08-22T02:31:45.082Z,101315.63
2022-08-22T02:34:28.528Z,101307.59
2022-08-22T02:37:04.586Z,101309.66
2022-08-22T02:39:37.445Z,101311.53
2022-08-22T02:42:17.111Z,101308.97
2022-08-22T02:44:52.800Z,101302.66
2022-08-22T02:47:29.335Z,101301.81
2022-08-22T02:50:05.481Z,101308.31
2022-08-22T02:52:45.321Z,101301.31
2022-08-22T02:55:18.277Z,101306.97
2022-08-22T02:57:53.373Z,101299.78
2022-08-22T03:00:31.918Z,101303.53
2022-08-22T03:03:04.366Z,101298.22
2022-08-22T03:05:50.065Z,101301.13
2022-08-22T03:08:22.995Z,101296.00
2022-08-22T03:11:01.238Z,101301.44
2022-08-22T03:13:40.186Z,101298.06
2022-08-22T03:16:18.353Z,101298.22
2022-08-22T03:18:53.555Z,101298.59
2022-08-22T03:21:27.871Z,101289.91
2022-08-22T03:23:58.079Z,101297.38
2022-08-22T03:26:32.528Z,101289.41
2022-08-22T03:29:04.615Z,101292.44
2022-08-22T03:31:32.539Z,101294.31
2022-08-22T03:34:20.073Z,101288.19
2022-08-22T03:36:58.219Z,101292.97
2022-08-22T03:39:48.576Z,101294.16
2022-08-22T03:42:47.246Z,101290.59
2022-08-22T03:45:46.886Z,101287.00
2022-08-22T03:48:37.666Z,101294.31
2022-08-22T03:51:20.411Z,101290.94
2022-08-22T03:54:10.482Z,101292.31
2022-08-22T03:57:30.184Z,101297.91
2022-08-22T04:00:12.858Z,101296.41
2022-08-22T04:03:05.022Z,101304.88
2022-08-22T04:06:06.817Z,101312.22
2022-08-22T04:08:57.776Z,101315.13
2022-08-22T04:12:06.767Z,101317.84
2022-08-22T04:15:05.635Z,101323.47
2022-08-22T04:17:52.571Z,101330.78
2022-08-22T04:20:32.479Z,101328.06
2022-08-22T04:23:18.270Z,101328.06
2022-08-22T04:25:50.874Z,101325.53
2022-08-22T04:28:36.448Z,101329.06
2022-08-22T04:31:08.796Z,101331.63
2022-08-22T04:33:40.605Z,101342.38
2022-08-22T04:36:15.931Z,101340.31
2022-08-22T04:38:48.302Z,101335.38
2022-08-22T04:41:20.091Z,101344.09
2022-08-22T04:43:52.786Z,101344.75
2022-08-22T04:46:32.105Z,101343.25
2022-08-22T04:49:11.170Z,101343.59
2022-08-22T04:51:43.173Z,101346.47
2022-08-22T04:54:32.951Z,101351.25
2022-08-22T04:57:14.326Z,101356.84
2022-08-22T04:59:41.782Z,101347.19
2022-08-22T05:02:11.524Z,101355.69
2022-08-22T05:04:43.601Z,101353.31
2022-08-22T05:07:14.527Z,101352.97
2022-08-22T05:09:45.105Z,101359.78
2022-08-22T05:12:16.990Z,101365.56
2022-08-22T05:14:47.442Z,101364.34
2022-08-22T05:17:17.502Z,101370.34
2022-08-22T05:19:50.510Z,101371.69
2022-08-22T05:22:20.811Z,101369.63
2022-08-22T05:24:51.503Z,101368.25
2022-08-22T05:27:22.838Z,101370.66
2022-08-22T05:29:52.334Z,101375.75
2022-08-22T05:32:25.781Z,101376.25
2022-08-22T05:34:57.751Z,101384.94
2022-08-22T05:37:37.977Z,101375.22
2022-08-22T05:40:05.819Z,101382.88
2022-08-22T05:42:34.934Z,101379.63
2022-08-22T05:45:05.698Z,101382.69
2022-08-22T05:47:41.002Z,101382.81
2022-08-22T05:50:13.910Z,101376.47
2022-08-22T05:52:57.728Z,101380.03
2022-08-22T05:55:27.610Z,101375.72
2022-08-22T05:58:12.433Z,101382.91
2022-08-22T06:00:42.706Z,101392.59
2022-08-22T06:03:16.624Z,101395.28
2022-08-22T06:05:50.110Z,101384.97
2022-08-22T06:08:19.247Z,101388.50
2022-08-22T06:10:49.658Z,101386.22
2022-08-22T06:13:24.401Z,101389.75
2022-08-22T06:15:59.028Z,101390.69
2022-08-22T06:18:27.513Z,101395.09
2022-08-22T06:20:58.466Z,101389.75
2022-08-22T06:23:28.457Z,101403.34
2022-08-22T06:26:00.132Z,101398.50
2022-08-22T06:28:32.188Z,101395.50
2022-08-22T06:31:01.329Z,101391.66
2022-08-22T06:33:31.168Z,101397.75
2022-08-22T06:36:03.002Z,101390.28
2022-08-22T06:38:31.886Z,101395.97
2022-08-22T06:41:02.427Z,101398.63
2022-08-22T06:43:43.157Z,101400.88
2022-08-22T06:46:13.085Z,101403.16
2022-08-22T06:48:40.264Z,101399.94
2022-08-22T06:51:08.775Z,101402.59
2022-08-22T06:53:40.283Z,101403.34
2022-08-22T06:56:20.112Z,101399.44
2022-08-22T06:58:50.632Z,101404.63
2022-08-22T07:01:21.821Z,101409.81
2022-08-22T07:03:52.346Z,101404.03
2022-08-22T07:06:36.164Z,101402.66
2022-08-22T07:09:06.665Z,101402.16
2022-08-22T07:11:38.615Z,101410.09
2022-08-22T07:14:07.779Z,101419.63
2022-08-22T07:16:46.622Z,101408.28
2022-08-22T07:19:23.696Z,101409.97
2022-08-22T07:21:51.761Z,101408.53
2022-08-22T07:24:22.638Z,101407.09
2022-08-22T07:27:02.809Z,101417.28
2022-08-22T07:29:42.336Z,101425.84
2022-08-22T07:32:15.378Z,101415.75
2022-08-22T07:34:57.373Z,101417.91
2022-08-22T07:37:36.812Z,101420.25
2022-08-22T07:40:16.337Z,101418.81
2022-08-22T07:42:47.718Z,101417.16
2022-08-22T07:45:17.644Z,101424.41
2022-08-22T07:48:05.816Z,101425.34
2022-08-22T07:50:37.144Z,101421.69
2022-08-22T07:53:15.586Z,101422.63
2022-08-22T07:55:49.313Z,101416.78
2022-08-22T07:58:18.085Z,101413.06
2022-08-22T08:00:48.063Z,101416.47
2022-08-22T08:03:15.265Z,101418.63
2022-08-22T08:05:44.760Z,101420.16
2022-08-22T08:08:20.423Z,101424.63
2022-08-22T08:10:49.309Z,101423.19
2022-08-22T08:13:24.873Z,101423.00
2022-08-22T08:15:51.904Z,101418.34
2022-08-22T08:18:21.871Z,101422.81
2022-08-22T08:20:52.023Z,101416.91
2022-08-22T08:23:23.807Z,101418.41
2022-08-22T08:25:59.501Z,101420.94
2022-08-22T08:28:26.514Z,101420.75
2022-08-22T08:30:56.095Z,101423.94
2022-08-22T08:33:26.931Z,101426.91
2022-08-22T08:36:02.995Z,101421.00
2022-08-22T08:38:36.213Z,101417.59
2022-08-22T08:41:44.278Z,101419.09
2022-08-22T08:44:26.330Z,101420.34
2022-08-22T08:47:16.429Z,101421.19
2022-08-22T08:49:59.303Z,101413.53
2022-08-22T08:52:55.388Z,101405.66
2022-08-22T08:55:37.269Z,101404.19
2022-08-22T08:58:20.771Z,101405.03
2022-08-22T09:00:56.137Z,101405.84
2022-08-22T09:04:07.280Z,101404.34
2022-08-22T09:07:01.211Z,101394.56
2022-08-22T09:09:42.865Z,101403.28
2022-08-22T09:12:56.191Z,101408.53
2022-08-22T09:16:04.420Z,101399.56
2022-08-22T09:18:59.567Z,101407.56
2022-08-22T09:22:05.063Z,101402.84
2022-08-22T09:24:50.741Z,101410.41
2022-08-22T09:27:27.757Z,101404.19
2022-08-22T09:30:04.653Z,101406.06
2022-08-22T09:32:45.789Z,101405.38
2022-08-22T09:35:22.552Z,101412.06
2022-08-22T09:38:21.359Z,101409.28
2022-08-22T09:40:54.550Z,101408.78
2022-08-22T09:43:30.715Z,101409.78
2022-08-22T09:46:13.966Z,101406.56
2022-08-22T09:48:50.712Z,101394.19
2022-08-22T09:51:31.948Z,101394.59
2022-08-22T09:54:31.650Z,101394.75
2022-08-22T09:57:16.229Z,101391.03
2022-08-22T09:59:54.797Z,101403.75
2022-08-22T10:02:32.073Z,101402.81
2022-08-22T10:05:09.345Z,101402.59
2022-08-22T10:08:00.329Z,101406.81
2022-08-22T10:10:43.391Z,101403.00
2022-08-22T10:13:23.570Z,101410.81
2022-08-22T10:15:57.299Z,101405.75
2022-08-22T10:18:35.974Z,101408.31
2022-08-22T10:21:10.728Z,101407.16
2022-08-22T10:23:42.736Z,101401.09
2022-08-22T10:26:27.448Z,101414.47
2022-08-22T10:29:01.310Z,101414.25
2022-08-22T10:31:42.789Z,101405.00
2022-08-22T10:34:28.954Z,101404.09
2022-08-22T10:37:10.526Z,101396.16
2022-08-22T10:39:44.536Z,101409.47
2022-08-22T10:42:25.228Z,101406.63
2022-08-22T10:45:14.296Z,101407.72
2022-08-22T10:48:21.803Z,101404.84
2022-08-22T10:50:55.782Z,101402.38
2022-08-22T10:53:29.010Z,101394.59
2022-08-22T10:56:04.667Z,101400.03
2022-08-22T10:58:38.518Z,101396.91
2022-08-22T11:01:37.662Z,101394.78
2022-08-22T11:04:05.498Z,101391.44
2022-08-22T11:06:44.775Z,101387.94
2022-08-22T11:09:25.887Z,101391.44
2022-08-22T11:12:01.446Z,101392.69
2022-08-22T11:14:56.049Z,101396.19
2022-08-22T11:17:40.716Z,101393.56
2022-08-22T11:20:19.673Z,101394.63
2022-08-22T11:23:04.830Z,101393.69
2022-08-22T11:25:44.254Z,101389.69
2022-08-22T11:28:31.213Z,101391.28
2022-08-22T11:31:07.247Z,101384.16
2022-08-22T11:33:47.333Z,101379.97
2022-08-22T11:36:31.177Z,101384.44
2022-08-22T11:39:18.245Z,101377.56
2022-08-22T11:41:53.327Z,101371.53
2022-08-22T11:44:27.081Z,101377.31
2022-08-22T11:46:55.482Z,101375.13
2022-08-22T11:49:44.455Z,101374.03
2022-08-22T11:52:20.319Z,101372.34
2022-08-22T11:55:11.470Z,101364.81
2022-08-22T11:57:44.344Z,101367.31
2022-08-22T12:00:34.432Z,101374.22
2022-08-22T12:03:36.376Z,101369.50
2022-08-22T12:06:20.873Z,101366.38
2022-08-22T12:09:26.575Z,101366.13
2022-08-22T12:12:29.816Z,101368.09
2022-08-22T12:15:03.894Z,101354.03
2022-08-22T12:18:08.883Z,101359.97
2022-08-22T12:20:52.402Z,101358.00
2022-08-22T12:23:43.272Z,101357.06
2022-08-22T12:26:26.072Z,101346.53
2022-08-22T12:29:16.899Z,101344.72
2022-08-22T12:32:20.632Z,101338.22
2022-08-22T12:35:13.719Z,101337.06
2022-08-22T12:37:52.842Z,101333.84
2022-08-22T12:40:29.502Z,101338.25
2022-08-22T12:43:32.231Z,101321.66
2022-08-22T12:46:16.508Z,101333.19
2022-08-22T12:48:58.962Z,101329.53
2022-08-22T12:51:31.490Z,101322.19
2022-08-22T12:54:51.546Z,101327.81
2022-08-22T12:57:30.672Z,101319.97
2022-08-22T13:00:07.181Z,101317.03
2022-08-22T13:02:36.787Z,101321.84
2022-08-22T13:05:10.944Z,101325.47
2022-08-22T13:07:41.455Z,101321.00
2022-08-22T13:10:31.198Z,101317.72
2022-08-22T13:13:00.246Z,101316.13
2022-08-22T13:15:34.314Z,101314.44
2022-08-22T13:18:28.715Z,101314.94
2022-08-22T13:20:57.714Z,101313.94
2022-08-22T13:23:27.639Z,101310.19
2022-08-22T13:26:00.895Z,101307.75
2022-08-22T13:28:30.653Z,101316.94
2022-08-22T13:30:58.569Z,101314.06
2022-08-22T13:33:30.632Z,101314.47
2022-08-22T13:36:02.246Z,101311.03
2022-08-22T13:38:38.537Z,101320.94
2022-08-22T13:41:19.411Z,101317.81
2022-08-22T13:44:00.637Z,101311.59
2022-08-22T13:46:30.311Z,101320.03
2022-08-22T13:49:07.520Z,101314.38
2022-08-22T13:51:40.520Z,101308.53
2022-08-22T13:54:36.447Z,101309.38
2022-08-22T13:57:12.913Z,101310.00
2022-08-22T13:59:51.700Z,101308.06
2022-08-22T14:02:37.248Z,101305.28
2022-08-22T14:05:07.735Z,101308.47
2022-08-22T14:07:38.488Z,101303.03
2022-08-22T14:10:12.510Z,101312.38
2022-08-22T14:13:05.920Z,101309.47
2022-08-22T14:15:44.631Z,101302.59
2022-08-22T14:18:19.639Z,101301.75
2022-08-22T14:20:48.942Z,101300.66
2022-08-22T14:23:23.970Z,101302.94
2022-08-22T14:25:54.010Z,101303.78
2022-08-22T14:28:27.345Z,101296.91
2022-08-22T14:31:00.654Z,101294.00
2022-08-22T14:33:31.257Z,101305.50
2022-08-22T14:36:02.023Z,101304.56
2022-08-22T14:38:35.451Z,101300.31
2022-08-22T14:41:05.103Z,101311.91
2022-08-22T14:43:51.915Z,101302.06
2022-08-22T14:46:25.776Z,101301.56
2022-08-22T14:49:13.341Z,101298.66
2022-08-22T14:51:48.036Z,101298.19
2022-08-22T14:54:21.920Z,101306.16
2022-08-22T14:56:51.431Z,101307.72
2022-08-22T14:59:32.282Z,101311.09
2022-08-22T15:02:02.722Z,101312.56
2022-08-22T15:04:35.439Z,101318.22
2022-08-22T15:07:03.818Z,101317.84
2022-08-22T15:09:33.691Z,101320.28
2022-08-22T15:12:03.525Z,101313.53
2022-08-22T15:14:44.216Z,101327.84
2022-08-22T15:17:38.752Z,101316.53
2022-08-22T15:20:10.860Z,101325.94
2022-08-22T15:22:41.391Z,101328.09
2022-08-22T15:25:16.679Z,101317.63
2022-08-22T15:27:49.894Z,101323.78
2022-08-22T15:30:21.103Z,101319.91
2022-08-22T15:32:48.659Z,101319.31
2022-08-22T15:35:31.035Z,101314.84
2022-08-22T15:38:01.437Z,101318.47
2022-08-22T15:40:33.820Z,101312.69
2022-08-22T15:43:16.555Z,101315.47
2022-08-22T15:45:49.440Z,101319.31
2022-08-22T15:48:29.446Z,101312.19
2022-08-22T15:50:59.266Z,101316.66
2022-08-22T15:53:33.611Z,101309.56
2022-08-22T15:56:26.728Z,101316.16
2022-08-22T15:59:31.243Z,101312.09
2022-08-22T16:02:25.777Z,101313.38
2022-08-22T16:05:18.963Z,101314.50
2022-08-22T16:07:48.529Z,101316.31
2022-08-22T16:10:31.978Z,101314.75
2022-08-22T16:13:37.950Z,101317.50
2022-08-22T16:16:07.966Z,101306.59
2022-08-22T16:19:08.584Z,101312.63
2022-08-22T16:22:21.254Z,101304.66
2022-08-22T16:25:10.166Z,101315.13
2022-08-22T16:27:52.183Z,101312.47
2022-08-22T16:30:32.311Z,101306.56
2022-08-22T16:32:59.750Z,101307.28
2022-08-22T16:36:03.830Z,101302.91
2022-08-22T16:38:36.723Z,101311.19
2022-08-22T16:41:04.525Z,101307.69
2022-08-22T16:43:32.947Z,101305.00
2022-08-22T16:46:01.282Z,101303.78
2022-08-22T16:48:34.103Z,101311.06
2022-08-22T16:51:13.796Z,101312.88
2022-08-22T16:54:07.605Z,101314.00
2022-08-22T16:56:44.516Z,101313.91
2022-08-22T16:59:38.356Z,101312.41
2022-08-22T17:02:25.128Z,101319.50
2022-08-22T17:05:04.308Z,101322.75
2022-08-22T17:07:43.423Z,101320.66
2022-08-22T17:10:48.572Z,101316.91
2022-08-22T17:13:29.714Z,101308.69
2022-08-22T17:16:15.019Z,101303.84
2022-08-22T17:19:06.309Z,101313.69
2022-08-22T17:21:50.667Z,101313.06
2022-08-22T17:24:31.996Z,101320.75
2022-08-22T17:27:07.511Z,101319.75
2022-08-22T17:29:46.666Z,101321.47
2022-08-22T17:32:20.945Z,101314.72
2022-08-22T17:34:57.834Z,101315.19
2022-08-22T17:37:36.075Z,101312.00
2022-08-22T17:40:37.234Z,101320.16
2022-08-22T17:43:18.580Z,101310.88
2022-08-22T17:46:12.824Z,101321.75
2022-08-22T17:48:45.972Z,101336.25
2022-08-22T17:51:25.312Z,101333.56
2022-08-22T17:53:59.171Z,101340.63
2022-08-22T17:56:30.666Z,101342.16
2022-08-22T17:59:02.588Z,101345.81
2022-08-22T18:01:49.193Z,101348.41
2022-08-22T18:04:33.232Z,101347.84
2022-08-22T18:07:21.552Z,101346.78
2022-08-22T18:09:54.493Z,101354.88
2022-08-22T18:12:26.280Z,101352.56
2022-08-22T18:14:57.987Z,101347.97
2022-08-22T18:17:29.878Z,101357.75
2022-08-22T18:20:04.009Z,101359.50
2022-08-22T18:22:36.641Z,101361.22
2022-08-22T18:25:07.725Z,101357.41
2022-08-22T18:27:39.786Z,101360.84
2022-08-22T18:30:17.246Z,101368.31
2022-08-22T18:32:54.039Z,101374.72
2022-08-22T18:35:26.938Z,101375.38
2022-08-22T18:38:01.265Z,101375.81
2022-08-22T18:40:49.836Z,101379.25
2022-08-22T18:43:20.882Z,101379.28
2022-08-22T18:46:04.648Z,101375.66
2022-08-22T18:48:59.540Z,101375.69
2022-08-22T18:51:31.147Z,101382.06
2022-08-22T18:54:17.415Z,101384.88
2022-08-22T18:56:49.896Z,101383.81
2022-08-22T18:59:41.300Z,101383.59
2022-08-22T19:02:25.708Z,101392.31
2022-08-22T19:05:11.723Z,101389.16
2022-08-22T19:08:31.089Z,101390.41
2022-08-22T19:11:13.258Z,101400.19
2022-08-22T19:14:08.133Z,101396.16
2022-08-22T19:17:13.867Z,101402.13
2022-08-22T19:19:54.810Z,101400.00
2022-08-22T19:22:27.068Z,101405.31
2022-08-22T19:25:16.349Z,101404.88
2022-08-22T19:27:45.583Z,101403.63
2022-08-22T19:30:36.410Z,101409.53
2022-08-22T19:33:06.276Z,101398.50
2022-08-22T19:35:44.302Z,101401.88
2022-08-22T19:38:11.750Z,101404.44
2022-08-22T19:40:52.982Z,101405.72
2022-08-22T19:43:27.927Z,101406.13
2022-08-22T19:45:56.104Z,101407.59
2022-08-22T19:48:25.649Z,101401.47
2022-08-22T19:51:08.273Z,101404.41
2022-08-22T19:53:41.624Z,101411.22
2022-08-22T19:56:20.218Z,101415.22
2022-08-22T19:59:00.987Z,101420.09
2022-08-22T20:01:38.883Z,101416.69
2022-08-22T20:04:11.163Z,101420.53
2022-08-22T20:06:45.087Z,101419.69
2022-08-22T20:09:25.862Z,101427.09
2022-08-22T20:12:06.085Z,101418.19
2022-08-22T20:14:35.717Z,101424.97
2022-08-22T20:17:07.475Z,101422.41
2022-08-22T20:19:41.160Z,101419.22
2022-08-22T20:22:10.311Z,101422.19
2022-08-22T20:24:41.369Z,101422.63
2022-08-22T20:27:15.296Z,101413.94
2022-08-22T20:29:49.936Z,101412.41
2022-08-22T20:32:18.961Z,101414.56
2022-08-22T20:34:47.565Z,101416.88
2022-08-22T20:37:32.258Z,101423.00
2022-08-22T20:40:55.976Z,101423.63
2022-08-22T20:43:17.554Z,101426.56
2022-08-22T20:46:02.627Z,101428.00
2022-08-22T20:48:36.225Z,101429.28
2022-08-22T20:51:04.582Z,101433.28
2022-08-22T20:53:32.668Z,101435.41
2022-08-22T20:55:59.246Z,101433.91
2022-08-22T20:58:33.448Z,101434.13
2022-08-22T21:01:01.757Z,101436.41
2022-08-22T21:03:37.631Z,101433.03
2022-08-22T21:06:13.191Z,101434.31
2022-08-22T21:08:40.702Z,101433.66
2022-08-22T21:11:08.873Z,101432.19
2022-08-22T21:13:37.191Z,101428.97
2022-08-22T21:16:12.666Z,101430.88
2022-08-22T21:18:41.044Z,101440.38
2022-08-22T21:21:17.808Z,101441.44
2022-08-22T21:23:47.490Z,101436.78
2022-08-22T21:26:22.647Z,101440.59
2022-08-22T21:28:58.770Z,101448.84
2022-08-22T21:31:28.442Z,101442.72
2022-08-22T21:33:56.241Z,101448.22
2022-08-22T21:36:25.268Z,101452.84
2022-08-22T21:38:54.696Z,101446.50
2022-08-22T21:41:31.444Z,101446.69
2022-08-22T21:44:24.649Z,101454.50
2022-08-22T21:46:52.519Z,101451.31
2022-08-22T21:49:22.736Z,101447.53
2022-08-22T21:51:50.158Z,101454.06
2022-08-22T21:54:22.291Z,101453.22
2022-08-22T21:56:51.237Z,101457.03
2022-08-22T21:59:26.398Z,101453.44
2022-08-22T22:02:28.144Z,101453.63
2022-08-22T22:04:55.161Z,101461.22
2022-08-22T22:07:22.939Z,101459.56
2022-08-22T22:09:54.960Z,101458.03
2022-08-22T22:12:22.243Z,101454.00
2022-08-22T22:14:50.813Z,101445.72
2022-08-22T22:17:18.970Z,101448.84
2022-08-22T22:19:45.784Z,101446.53
2022-08-22T22:22:13.536Z,101447.78
2022-08-22T22:24:40.142Z,101442.47
2022-08-22T22:27:06.904Z,101443.75
2022-08-22T22:29:35.349Z,101443.94
2022-08-22T22:32:04.121Z,101449.63
2022-08-22T22:34:30.700Z,101447.91
2022-08-22T22:36:57.466Z,101443.28
2022-08-22T22:39:24.090Z,101448.78
2022-08-22T22:41:50.659Z,101438.63
2022-08-22T22:44:17.250Z,101444.13
2022-08-22T22:46:48.214Z,101446.88
2022-08-22T22:49:17.734Z,101440.53
2022-08-22T22:51:44.366Z,101442.63
2022-08-22T22:54:11.185Z,101442.81
2022-08-22T22:56:37.932Z,101441.31
2022-08-22T22:59:13.407Z,101445.28
2022-08-22T23:02:00.321Z,101438.50
2022-08-22T23:04:29.349Z,101441.66
2022-08-22T23:06:55.917Z,101431.94
2022-08-22T23:09:22.838Z,101433.34
2022-08-22T23:11:59.255Z,101434.63
2022-08-22T23:14:26.128Z,101443.91
2022-08-22T23:16:52.809Z,101433.13
2022-08-22T23:19:19.449Z,101429.53
2022-08-22T23:21:47.443Z,101433.94
2022-08-22T23:24:14.374Z,101430.38
2022-08-22T23:26:41.430Z,101435.03
2022-08-22T23:29:08.195Z,101438.81
2022-08-22T23:31:37.663Z,101441.13
2022-08-22T23:34:06.676Z,101442.56
2022-08-22T23:36:33.973Z,101446.53
2022-08-22T23:39:03.207Z,101448.44
2022-08-22T23:41:29.954Z,101451.84
2022-08-22T23:43:56.546Z,101448.25
2022-08-22T23:46:25.460Z,101448.91
2022-08-22T23:48:52.650Z,101447.22
2022-08-22T23:51:22.987Z,101445.09
2022-08-22T23:53:49.935Z,101437.06
2022-08-22T23:56:20.323Z,101451.44
2022-08-22T23:58:48.276Z,101436.22
